createdAt,value
2022-10-22T00:02:08.900Z,95473.06
2022-10-22T00:04:36.095Z,95471.09
2022-10-22T00:07:04.759Z,95478.41
2022-10-22T00:09:31.899Z,95464.94
2022-10-22T00:11:59.059Z,95469.53
2022-10-22T00:14:26.119Z,95477.53
2022-10-22T00:16:53.269Z,95492.66
2022-10-22T00:19:20.331Z,95491.22
2022-10-22T00:21:47.398Z,95487.28
2022-10-22T00:24:16.101Z,95490.88
2022-10-22T00:26:43.141Z,95488.69
2022-10-22T00:29:10.318Z,95485.44
2022-10-22T00:31:37.478Z,95482.59
2022-10-22T00:34:04.620Z,95484.69
2022-10-22T00:36:31.699Z,95481.19
2022-10-22T00:38:58.799Z,95478.53
2022-10-22T00:41:27.399Z,95481.47
2022-10-22T00:43:57.438Z,95487.34
2022-10-22T00:46:24.632Z,95490.38
2022-10-22T00:48:53.032Z,95494.56
2022-10-22T00:51:24.643Z,95501.47
2022-10-22T00:53:57.233Z,95498.63
2022-10-22T00:56:25.096Z,95506.00
2022-10-22T00:58:59.727Z,95517.94
2022-10-22T01:01:31.356Z,95533.88
2022-10-22T01:03:59.434Z,95537.59
2022-10-22T01:06:29.572Z,95540.81
2022-10-22T01:09:10.033Z,95545.03
2022-10-22T01:11:52.574Z,95547.31
2022-10-22T01:14:33.499Z,95556.47
2022-10-22T01:17:08.049Z,95545.41
2022-10-22T01:19:57.956Z,95533.13
2022-10-22T01:22:32.604Z,95528.00
2022-10-22T01:25:08.025Z,95538.91
2022-10-22T01:28:01.689Z,95535.47
2022-10-22T01:30:30.406Z,95544.19
2022-10-22T01:33:03.378Z,95541.13
2022-10-22T01:35:35.970Z,95543.78
2022-10-22T01:38:09.092Z,95549.91
2022-10-22T01:40:37.547Z,95549.16
2022-10-22T01:43:07.195Z,95549.34
2022-10-22T01:45:40.566Z,95545.00
2022-10-22T01:48:26.206Z,95554.97
2022-10-22T01:51:19.305Z,95550.34
2022-10-22T01:54:00.147Z,95527.00
2022-10-22T01:56:56.987Z,95515.38
2022-10-22T01:59:40.027Z,95518.50
2022-10-22T02:02:23.725Z,95529.38
2022-10-22T02:04:58.869Z,95514.03
2022-10-22T02:07:31.807Z,95514.81
2022-10-22T02:10:01.226Z,95505.22
2022-10-22T02:12:32.409Z,95499.34
2022-10-22T02:15:03.050Z,95494.53
2022-10-22T02:17:37.486Z,95495.91
2022-10-22T02:20:12.685Z,95507.50
2022-10-22T02:22:40.215Z,95521.00
2022-10-22T02:25:09.509Z,95528.41
2022-10-22T02:27:44.007Z,95526.78
2022-10-22T02:32:50.367Z,95543.31
2022-10-22T02:35:22.290Z,95543.38
2022-10-22T02:37:52.267Z,95552.22
2022-10-22T02:40:21.227Z,95558.28
2022-10-22T02:42:50.565Z,95558.00
2022-10-22T02:45:19.948Z,95552.44
2022-10-22T02:47:49.089Z,95565.22
2022-10-22T02:50:17.077Z,95551.22
2022-10-22T02:52:44.249Z,95558.81
2022-10-22T02:55:11.366Z,95564.84
2022-10-22T02:57:38.624Z,95560.81
2022-10-22T03:00:07.899Z,95559.72
2022-10-22T03:02:34.926Z,95551.16
2022-10-22T03:05:04.153Z,95558.31
2022-10-22T03:07:31.368Z,95555.47
2022-10-22T03:09:58.507Z,95558.59
2022-10-22T03:12:25.708Z,95557.88
2022-10-22T03:14:52.747Z,95554.38
2022-10-22T03:17:19.825Z,95552.53
2022-10-22T03:19:46.909Z,95559.13
2022-10-22T03:22:20.426Z,95561.50
2022-10-22T03:24:53.329Z,95567.38
2022-10-22T03:27:22.827Z,95564.72
2022-10-22T03:29:52.707Z,95568.69
2022-10-22T03:32:19.908Z,95575.06
2022-10-22T03:34:47.152Z,95566.13
2022-10-22T03:37:16.688Z,95567.94
2022-10-22T03:39:44.330Z,95568.72
2022-10-22T03:42:11.690Z,95567.13
2022-10-22T03:44:40.567Z,95572.41
2022-10-22T03:47:08.591Z,95576.56
2022-10-22T03:49:36.266Z,95584.91
2022-10-22T03:52:07.747Z,95583.28
2022-10-22T03:57:10.667Z,95580.19
2022-10-22T03:59:39.646Z,95579.16
2022-10-22T04:02:06.727Z,95584.78
2022-10-22T04:04:34.329Z,95588.47
2022-10-22T04:07:01.365Z,95587.44
2022-10-22T04:09:31.368Z,95592.28
2022-10-22T04:12:00.266Z,95603.38
2022-10-22T04:14:27.307Z,95598.03
2022-10-22T04:16:54.747Z,95597.53
2022-10-22T04:19:21.888Z,95606.00
2022-10-22T04:21:48.911Z,95603.25
2022-10-22T04:24:16.427Z,95605.84
2022-10-22T04:26:44.048Z,95611.16
2022-10-22T04:29:15.997Z,95608.50
2022-10-22T04:31:43.768Z,95608.97
2022-10-22T04:34:10.910Z,95609.06
2022-10-22T04:36:37.940Z,95615.97
2022-10-22T04:39:05.468Z,95614.84
2022-10-22T04:41:34.349Z,95622.56
2022-10-22T04:44:01.825Z,95627.94
2022-10-22T04:46:32.985Z,95630.59
2022-10-22T04:49:00.273Z,95625.53
2022-10-22T04:51:27.806Z,95623.84
2022-10-22T04:53:55.349Z,95627.06
2022-10-22T04:56:25.688Z,95627.63
2022-10-22T04:58:55.166Z,95626.56
2022-10-22T05:01:24.490Z,95627.53
2022-10-22T05:03:55.246Z,95626.91
2022-10-22T05:06:23.749Z,95627.19
2022-10-22T05:08:55.340Z,95624.47
2022-10-22T05:11:25.227Z,95629.00
2022-10-22T05:13:52.448Z,95637.97
2022-10-22T05:16:19.546Z,95638.16
2022-10-22T05:18:46.587Z,95635.03
2022-10-22T05:21:17.545Z,95633.75
2022-10-22T05:23:46.286Z,95635.31
2022-10-22T05:26:16.190Z,95635.28
2022-10-22T05:31:12.928Z,95636.72
2022-10-22T05:33:40.748Z,95634.50
2022-10-22T05:36:10.910Z,95641.09
2022-10-22T05:38:39.328Z,95643.66
2022-10-22T05:41:09.786Z,95656.59
2022-10-22T05:43:37.568Z,95655.72
2022-10-22T05:46:06.746Z,95652.75
2022-10-22T05:48:34.392Z,95661.19
2022-10-22T05:51:02.847Z,95665.69
2022-10-22T05:53:30.188Z,95660.94
2022-10-22T05:56:00.426Z,95675.16
2022-10-22T05:58:27.488Z,95669.53
2022-10-22T06:00:54.608Z,95680.94
2022-10-22T06:03:21.727Z,95676.91
2022-10-22T06:05:48.869Z,95672.31
2022-10-22T06:08:18.930Z,95674.53
2022-10-22T06:10:46.466Z,95676.59
2022-10-22T06:13:15.049Z,95679.13
2022-10-22T06:15:42.128Z,95678.66
2022-10-22T06:18:09.205Z,95678.00
2022-10-22T06:20:36.309Z,95682.72
2022-10-22T06:23:03.387Z,95690.34
2022-10-22T06:25:30.516Z,95685.56
2022-10-22T06:27:57.645Z,95694.06
2022-10-22T06:30:26.188Z,95698.00
2022-10-22T06:32:53.167Z,95700.50
2022-10-22T06:35:20.186Z,95703.91
2022-10-22T06:37:47.208Z,95709.00
2022-10-22T06:40:14.535Z,95712.22
2022-10-22T06:42:41.778Z,95714.13
2022-10-22T06:45:10.727Z,95718.09
2022-10-22T06:47:39.630Z,95727.94
2022-10-22T06:50:08.369Z,95720.25
2022-10-22T06:52:35.385Z,95723.25
2022-10-22T06:55:02.456Z,95723.03
2022-10-22T06:57:30.802Z,95726.94
2022-10-22T06:59:57.867Z,95728.31
2022-10-22T07:02:24.967Z,95733.94
2022-10-22T07:04:53.447Z,95733.19
2022-10-22T07:07:20.506Z,95740.44
2022-10-22T07:09:47.526Z,95746.72
2022-10-22T07:12:15.230Z,95749.53
2022-10-22T07:14:42.375Z,95748.88
2022-10-22T07:17:09.865Z,95754.56
2022-10-22T07:19:37.287Z,95745.50
2022-10-22T07:22:05.827Z,95738.78
2022-10-22T07:24:33.007Z,95733.19
2022-10-22T07:27:00.110Z,95735.34
2022-10-22T07:29:27.326Z,95747.94
2022-10-22T07:31:54.607Z,95732.53
2022-10-22T07:34:21.722Z,95732.53
2022-10-22T07:36:48.826Z,95735.09
2022-10-22T07:39:17.346Z,95746.09
2022-10-22T07:41:44.415Z,95744.88
2022-10-22T07:44:11.769Z,95748.47
2022-10-22T07:46:38.827Z,95747.41
2022-10-22T07:49:05.890Z,95736.94
2022-10-22T07:51:32.908Z,95737.84
2022-10-22T07:53:59.948Z,95740.34
2022-10-22T07:56:28.507Z,95738.19
2022-10-22T07:58:55.555Z,95749.50
2022-10-22T08:01:22.712Z,95750.91
2022-10-22T08:03:49.812Z,95748.88
2022-10-22T08:06:17.468Z,95761.66
2022-10-22T08:08:45.533Z,95761.56
2022-10-22T08:11:13.088Z,95756.09
2022-10-22T08:13:45.629Z,95757.81
2022-10-22T08:16:13.907Z,95768.63
2022-10-22T08:18:41.007Z,95768.91
2022-10-22T08:21:08.047Z,95769.94
2022-10-22T08:23:35.167Z,95762.81
2022-10-22T08:26:02.208Z,95762.53
2022-10-22T08:28:29.387Z,95769.22
2022-10-22T08:30:58.047Z,95767.41
2022-10-22T08:33:25.116Z,95768.81
2022-10-22T08:35:52.708Z,95764.00
2022-10-22T08:38:20.506Z,95765.06
2022-10-22T08:40:51.973Z,95762.38
2022-10-22T08:43:46.489Z,95770.13
2022-10-22T08:46:30.847Z,95766.38
2022-10-22T08:49:02.050Z,95770.03
2022-10-22T08:51:34.434Z,95778.69
2022-10-22T08:54:22.727Z,95779.47
2022-10-22T08:57:02.651Z,95778.66
2022-10-22T08:59:39.650Z,95772.28
2022-10-22T09:02:30.449Z,95769.84
2022-10-22T09:05:13.567Z,95771.16
2022-10-22T09:07:43.614Z,95777.03
2022-10-22T09:10:13.489Z,95764.97
2022-10-22T09:12:41.067Z,95767.59
2022-10-22T09:15:14.188Z,95767.81
2022-10-22T09:17:58.329Z,95767.59
2022-10-22T09:20:32.408Z,95768.88
2022-10-22T09:23:17.431Z,95769.34
2022-10-22T09:25:45.769Z,95761.47
2022-10-22T09:28:13.213Z,95771.19
2022-10-22T09:30:40.408Z,95771.84
2022-10-22T09:33:15.428Z,95772.56
2022-10-22T09:35:47.988Z,95780.63
2022-10-22T09:38:18.990Z,95782.63
2022-10-22T09:40:49.309Z,95781.53
2022-10-22T09:43:17.489Z,95771.06
2022-10-22T09:45:45.807Z,95781.22
2022-10-22T09:48:21.887Z,95769.34
2022-10-22T09:50:55.110Z,95767.44
2022-10-22T09:53:26.950Z,95771.16
2022-10-22T09:55:57.195Z,95766.91
2022-10-22T09:58:25.011Z,95764.44
2022-10-22T10:00:56.188Z,95769.44
2022-10-22T10:03:27.803Z,95769.16
2022-10-22T10:06:01.483Z,95765.50
2022-10-22T10:08:32.144Z,95769.50
2022-10-22T10:11:07.749Z,95771.19
2022-10-22T10:13:50.708Z,95767.63
2022-10-22T10:16:35.809Z,95773.56
2022-10-22T10:19:28.429Z,95777.34
2022-10-22T10:22:10.449Z,95770.63
2022-10-22T10:24:56.109Z,95770.97
2022-10-22T10:27:34.168Z,95782.31
2022-10-22T10:30:06.153Z,95776.47
2022-10-22T10:32:56.308Z,95774.59
2022-10-22T10:35:29.488Z,95770.00
2022-10-22T10:38:14.349Z,95765.69
2022-10-22T10:40:48.853Z,95764.53
2022-10-22T10:43:24.531Z,95758.88
2022-10-22T10:46:09.543Z,95758.03
2022-10-22T10:48:49.369Z,95760.91
2022-10-22T10:51:35.768Z,95759.78
2022-10-22T10:54:27.516Z,95763.03
2022-10-22T10:57:00.608Z,95757.66
2022-10-22T10:59:42.349Z,95758.47
2022-10-22T11:02:45.322Z,95748.09
2022-10-22T11:05:30.790Z,95758.28
2022-10-22T11:08:04.669Z,95754.25
2022-10-22T11:10:39.288Z,95747.03
2022-10-22T11:13:18.188Z,95751.06
2022-10-22T11:15:52.788Z,95748.44
2022-10-22T11:18:25.152Z,95738.31
2022-10-22T11:21:19.010Z,95733.84
2022-10-22T11:23:55.708Z,95731.97
2022-10-22T11:26:36.268Z,95741.34
2022-10-22T11:29:11.651Z,95733.44
2022-10-22T11:31:41.108Z,95731.44
2022-10-22T11:34:34.351Z,95718.47
2022-10-22T11:37:04.527Z,95720.56
2022-10-22T11:39:41.472Z,95723.22
2022-10-22T11:42:12.109Z,95723.03
2022-10-22T11:44:59.072Z,95719.91
2022-10-22T11:47:28.468Z,95719.53
2022-10-22T11:50:02.270Z,95718.72
2022-10-22T11:52:41.495Z,95720.03
2022-10-22T11:55:42.348Z,95723.69
2022-10-22T11:58:31.407Z,95720.31
2022-10-22T12:01:17.966Z,95720.22
2022-10-22T12:03:49.726Z,95719.56
2022-10-22T12:06:23.827Z,95717.06
2022-10-22T12:08:59.609Z,95710.34
2022-10-22T12:11:36.152Z,95713.84
2022-10-22T12:14:17.427Z,95703.72
2022-10-22T12:17:02.493Z,95705.28
2022-10-22T12:19:32.752Z,95701.19
2022-10-22T12:22:11.651Z,95695.59
2022-10-22T12:24:41.787Z,95694.00
2022-10-22T12:27:22.456Z,95692.72
2022-10-22T12:29:55.647Z,95687.31
2022-10-22T12:32:23.867Z,95678.78
2022-10-22T12:34:52.991Z,95687.69
2022-10-22T12:37:20.285Z,95676.00
2022-10-22T12:39:47.706Z,95670.16
2022-10-22T12:42:18.181Z,95674.13
2022-10-22T12:44:45.387Z,95670.06
2022-10-22T12:47:17.488Z,95665.47
2022-10-22T12:49:48.149Z,95673.25
2022-10-22T12:52:20.607Z,95668.72
2022-10-22T12:54:50.176Z,95674.97
2022-10-22T12:57:21.600Z,95666.41
2022-10-22T12:59:52.097Z,95666.66
2022-10-22T13:02:22.908Z,95670.69
2022-10-22T13:05:24.256Z,95665.13
2022-10-22T13:07:53.567Z,95659.59
2022-10-22T13:10:25.548Z,95663.84
2022-10-22T13:12:56.148Z,95657.66
2022-10-22T13:15:35.887Z,95652.94
2022-10-22T13:18:16.450Z,95654.53
2022-10-22T13:20:55.610Z,95647.38
2022-10-22T13:23:24.706Z,95656.06
2022-10-22T13:26:00.318Z,95647.75
2022-10-22T13:28:32.246Z,95658.97
2022-10-22T13:31:01.547Z,95656.06
2022-10-22T13:33:34.250Z,95653.91
2022-10-22T13:36:02.467Z,95650.19
2022-10-22T13:38:30.087Z,95649.69
2022-10-22T13:40:57.807Z,95660.34
2022-10-22T13:43:24.992Z,95648.59
2022-10-22T13:45:58.227Z,95648.03
2022-10-22T13:48:28.146Z,95644.06
2022-10-22T13:50:55.306Z,95647.81
2022-10-22T13:53:26.188Z,95641.69
2022-10-22T13:55:54.039Z,95648.59
2022-10-22T13:58:23.329Z,95655.59
2022-10-22T14:00:55.425Z,95655.59
2022-10-22T14:03:28.248Z,95651.03
2022-10-22T14:05:56.187Z,95648.06
2022-10-22T14:08:27.026Z,95642.75
2022-10-22T14:10:54.766Z,95640.63
2022-10-22T14:13:21.984Z,95638.47
2022-10-22T14:15:52.193Z,95626.72
2022-10-22T14:18:24.338Z,95627.47
2022-10-22T14:20:55.046Z,95621.38
2022-10-22T14:23:25.306Z,95608.28
2022-10-22T14:25:52.686Z,95616.56
2022-10-22T14:28:20.387Z,95613.31
2022-10-22T14:30:47.628Z,95612.53
2022-10-22T14:33:18.670Z,95615.50
2022-10-22T14:35:47.912Z,95612.31
2022-10-22T14:38:15.026Z,95616.63
2022-10-22T14:40:44.135Z,95617.13
2022-10-22T14:43:13.029Z,95622.75
2022-10-22T14:45:40.088Z,95614.22
2022-10-22T14:48:07.259Z,95609.13
2022-10-22T14:50:34.666Z,95604.59
2022-10-22T14:53:03.300Z,95598.00
2022-10-22T14:55:30.386Z,95603.13
2022-10-22T14:57:57.806Z,95600.75
2022-10-22T15:00:24.952Z,95598.84
2022-10-22T15:02:52.347Z,95597.81
2022-10-22T15:05:19.510Z,95600.72
2022-10-22T15:07:46.637Z,95599.69
2022-10-22T15:10:15.147Z,95602.84
2022-10-22T15:12:42.167Z,95593.50
2022-10-22T15:15:10.152Z,95597.81
2022-10-22T15:17:37.513Z,95599.69
2022-10-22T15:20:05.891Z,95601.53
2022-10-22T15:22:33.630Z,95597.00
2022-10-22T15:25:01.014Z,95602.31
2022-10-22T15:27:29.568Z,95597.28
2022-10-22T15:29:56.726Z,95590.06
2022-10-22T15:32:23.806Z,95592.75
2022-10-22T15:34:53.597Z,95591.94
2022-10-22T15:37:21.848Z,95598.34
2022-10-22T15:39:49.128Z,95598.09
2022-10-22T15:42:16.688Z,95595.94
2022-10-22T15:44:45.649Z,95598.88
2022-10-22T15:47:12.766Z,95594.59
2022-10-22T15:49:40.671Z,95596.47
2022-10-22T15:52:08.993Z,95603.69
2022-10-22T15:54:36.593Z,95597.00
2022-10-22T15:57:03.960Z,95594.06
2022-10-22T15:59:31.252Z,95590.63
2022-10-22T16:01:59.788Z,95587.94
2022-10-22T16:04:26.872Z,95587.94
2022-10-22T16:06:54.269Z,95583.09
2022-10-22T16:09:23.930Z,95580.41
2022-10-22T16:14:22.590Z,95580.38
2022-10-22T16:16:52.420Z,95580.34
2022-10-22T16:19:23.109Z,95579.28
2022-10-22T16:21:51.514Z,95586.13
2022-10-22T16:24:19.862Z,95581.03
2022-10-22T16:26:47.830Z,95583.16
2022-10-22T16:29:15.195Z,95585.75
2022-10-22T16:31:42.367Z,95591.84
2022-10-22T16:34:09.807Z,95595.81
2022-10-22T16:36:39.214Z,95598.94
2022-10-22T16:39:06.826Z,95595.75
2022-10-22T16:41:34.470Z,95595.19
2022-10-22T16:44:03.787Z,95594.59
2022-10-22T16:46:31.765Z,95597.69
2022-10-22T16:48:58.901Z,95597.91
2022-10-22T16:51:28.381Z,95595.97
2022-10-22T16:53:58.509Z,95600.47
2022-10-22T16:56:26.288Z,95591.34
2022-10-22T16:58:56.262Z,95602.72
2022-10-22T17:01:25.890Z,95606.66
2022-10-22T17:03:54.302Z,95614.59
2022-10-22T17:06:23.705Z,95628.38
2022-10-22T17:08:51.295Z,95621.72
2022-10-22T17:11:22.242Z,95614.25
2022-10-22T17:13:51.803Z,95614.50
2022-10-22T17:16:20.883Z,95618.16
2022-10-22T17:18:48.707Z,95617.28
2022-10-22T17:21:17.224Z,95619.88
2022-10-22T17:23:45.302Z,95619.34
2022-10-22T17:26:16.046Z,95629.94
2022-10-22T17:28:44.760Z,95627.56
2022-10-22T17:31:17.804Z,95633.69
2022-10-22T17:33:45.482Z,95630.16
2022-10-22T17:36:13.820Z,95629.84
2022-10-22T17:38:43.063Z,95631.66
2022-10-22T17:41:15.241Z,95633.47
2022-10-22T17:43:42.394Z,95633.16
2022-10-22T17:46:16.242Z,95643.44
2022-10-22T17:48:43.345Z,95638.34
2022-10-22T17:51:12.681Z,95643.59
2022-10-22T17:53:40.963Z,95645.88
2022-10-22T17:56:09.681Z,95638.16
2022-10-22T17:58:37.549Z,95635.75
2022-10-22T18:01:06.301Z,95645.63
2022-10-22T18:03:35.323Z,95648.75
2022-10-22T18:06:07.836Z,95646.63
2022-10-22T18:08:35.052Z,95643.72
2022-10-22T18:11:06.762Z,95653.34
2022-10-22T18:13:33.983Z,95651.94
2022-10-22T18:16:01.083Z,95655.25
2022-10-22T18:18:29.041Z,95649.22
2022-10-22T18:20:57.943Z,95646.78
2022-10-22T18:23:25.104Z,95652.66
2022-10-22T18:25:52.485Z,95642.56
2022-10-22T18:28:20.203Z,95642.72
2022-10-22T18:30:49.285Z,95647.78
2022-10-22T18:33:18.624Z,95643.84
2022-10-22T18:35:46.863Z,95649.41
2022-10-22T18:38:15.662Z,95650.69
2022-10-22T18:40:45.981Z,95653.09
2022-10-22T18:43:13.284Z,95656.84
2022-10-22T18:45:42.884Z,95651.75
2022-10-22T18:48:10.324Z,95661.28
2022-10-22T18:50:37.383Z,95654.41
2022-10-22T18:53:04.601Z,95655.19
2022-10-22T18:55:34.381Z,95652.06
2022-10-22T18:58:01.725Z,95655.19
2022-10-22T19:00:28.822Z,95655.38
2022-10-22T19:02:55.924Z,95657.38
2022-10-22T19:05:23.083Z,95651.28
2022-10-22T19:07:53.541Z,95646.03
2022-10-22T19:10:21.023Z,95648.13
2022-10-22T19:12:49.503Z,95649.75
2022-10-22T19:15:16.807Z,95653.94
2022-10-22T19:17:44.199Z,95644.94
2022-10-22T19:20:11.583Z,95642.22
2022-10-22T19:22:38.743Z,95649.41
2022-10-22T19:25:09.702Z,95650.72
2022-10-22T19:27:39.396Z,95659.16
2022-10-22T19:30:09.826Z,95650.94
2022-10-22T19:32:36.982Z,95654.91
2022-10-22T19:35:05.022Z,95659.31
2022-10-22T19:37:33.142Z,95650.09
2022-10-22T19:40:00.380Z,95652.19
2022-10-22T19:42:27.565Z,95648.97
2022-10-22T19:44:54.701Z,95650.34
2022-10-22T19:47:23.222Z,95643.97
2022-10-22T19:49:50.323Z,95645.91
2022-10-22T19:52:17.403Z,95641.09
2022-10-22T19:54:44.522Z,95636.59
2022-10-22T19:57:15.584Z,95638.44
2022-10-22T19:59:42.904Z,95633.88
2022-10-22T20:02:15.363Z,95640.44
2022-10-22T20:04:49.144Z,95648.16
2022-10-22T20:07:17.374Z,95646.72
2022-10-22T20:09:44.584Z,95649.88
2022-10-22T20:12:11.702Z,95644.00
2022-10-22T20:14:40.204Z,95653.31
2022-10-22T20:17:07.341Z,95650.44
2022-10-22T20:19:34.461Z,95650.34
2022-10-22T20:22:03.029Z,95654.13
2022-10-22T20:24:30.543Z,95653.09
2022-10-22T20:26:57.964Z,95654.66
2022-10-22T20:29:25.065Z,95660.06
2022-10-22T20:31:52.143Z,95660.38
2022-10-22T20:34:19.201Z,95659.66
2022-10-22T20:36:46.345Z,95659.31
2022-10-22T20:39:15.821Z,95663.75
2022-10-22T20:41:42.961Z,95659.41
2022-10-22T20:44:15.659Z,95664.56
2022-10-22T20:46:43.158Z,95670.66
2022-10-22T20:49:13.047Z,95665.38
2022-10-22T20:51:40.482Z,95667.75
2022-10-22T20:54:08.823Z,95665.38
2022-10-22T20:56:39.909Z,95665.59
2022-10-22T20:59:09.304Z,95659.81
2022-10-22T21:01:39.224Z,95672.25
2022-10-22T21:04:07.194Z,95664.31
2022-10-22T21:06:35.786Z,95673.88
2022-10-22T21:09:03.167Z,95673.88
2022-10-22T21:11:30.307Z,95671.69
2022-10-22T21:13:59.016Z,95664.81
2022-10-22T21:16:37.945Z,95671.94
2022-10-22T21:19:09.607Z,95682.69
2022-10-22T21:21:36.905Z,95677.41
2022-10-22T21:24:04.703Z,95678.94
2022-10-22T21:26:31.983Z,95679.31
2022-10-22T21:29:00.643Z,95671.06
2022-10-22T21:31:27.701Z,95676.25
2022-10-22T21:33:55.082Z,95674.19
2022-10-22T21:36:24.067Z,95669.09
2022-10-22T21:38:52.844Z,95671.53
2022-10-22T21:41:22.096Z,95673.97
2022-10-22T21:43:49.765Z,95674.34
2022-10-22T21:46:20.282Z,95676.28
2022-10-22T21:48:48.226Z,95680.28
2022-10-22T21:51:17.886Z,95676.53
2022-10-22T21:53:45.653Z,95676.84
2022-10-22T21:56:15.184Z,95677.41
2022-10-22T21:58:43.225Z,95675.00
2022-10-22T22:01:10.993Z,95677.50
2022-10-22T22:03:41.951Z,95666.09
2022-10-22T22:06:09.143Z,95672.19
2022-10-22T22:08:36.439Z,95673.31
2022-10-22T22:11:05.993Z,95671.78
2022-10-22T22:13:34.423Z,95670.72
2022-10-22T22:16:03.503Z,95671.13
2022-10-22T22:18:32.222Z,95671.59
2022-10-22T22:21:03.684Z,95670.00
2022-10-22T22:23:30.823Z,95668.63
2022-10-22T22:25:59.345Z,95670.97
2022-10-22T22:28:26.745Z,95671.59
2022-10-22T22:30:53.842Z,95669.50
2022-10-22T22:33:20.882Z,95671.44
2022-10-22T22:35:47.949Z,95666.06
2022-10-22T22:38:16.568Z,95664.41
2022-10-22T22:40:44.283Z,95669.13
2022-10-22T22:43:12.404Z,95656.19
2022-10-22T22:45:39.483Z,95662.47
2022-10-22T22:48:07.421Z,95661.50
2022-10-22T22:50:35.697Z,95660.31
2022-10-22T22:53:02.869Z,95654.34
2022-10-22T22:55:31.426Z,95655.84
2022-10-22T22:57:58.824Z,95657.38
2022-10-22T23:00:26.070Z,95657.19
2022-10-22T23:02:54.926Z,95656.63
2022-10-22T23:05:21.923Z,95653.91
2022-10-22T23:07:48.985Z,95660.25
2022-10-22T23:10:16.414Z,95662.09
2022-10-22T23:12:45.086Z,95660.81
2022-10-22T23:15:12.583Z,95652.78
2022-10-22T23:17:39.683Z,95655.91
2022-10-22T23:20:08.063Z,95652.16
2022-10-22T23:22:35.162Z,95650.78
2022-10-22T23:25:02.225Z,95655.50
2022-10-22T23:27:29.440Z,95658.97
2022-10-22T23:29:58.042Z,95655.50
2022-10-22T23:32:25.164Z,95652.28
2022-10-22T23:34:52.222Z,95648.75
2022-10-22T23:37:19.342Z,95655.41
2022-10-22T23:39:46.385Z,95649.91
2022-10-22T23:42:13.501Z,95647.56
2022-10-22T23:44:40.700Z,95642.84
2022-10-22T23:47:09.205Z,95649.97
2022-10-22T23:49:36.302Z,95648.03
2022-10-22T23:52:03.421Z,95640.72
2022-10-22T23:54:30.582Z,95638.88
2022-10-22T23:56:57.642Z,95636.69
2022-10-22T23:59:29.736Z,95639.84
